sensor_id;sensor_type;location;lat;lon;timestamp;temperature;humidity
34815;DHT22;21030;53.912;15.214;2023-02-01T00:01:07;24.10;27.70
34815;DHT22;21030;53.912;15.214;2023-02-01T00:03:34;23.20;28.50
34815;DHT22;21030;53.912;15.214;2023-02-01T00:06:02;23.50;28.50
34815;DHT22;21030;53.912;15.214;2023-02-01T00:08:29;23.50;28.70
34815;DHT22;21030;53.912;15.214;2023-02-01T00:11:08;23.60;28.60
34815;DHT22;21030;53.912;15.214;2023-02-01T00:13:39;23.30;28.60
34815;DHT22;21030;53.912;15.214;2023-02-01T00:16:10;22.70;28.90
34815;DHT22;21030;53.912;15.214;2023-02-01T00:18:39;23.80;28.60
34815;DHT22;21030;53.912;15.214;2023-02-01T00:21:06;24.10;27.90
34815;DHT22;21030;53.912;15.214;2023-02-01T00:23:35;23.40;28.00
34815;DHT22;21030;53.912;15.214;2023-02-01T00:26:03;22.40;29.10
34815;DHT22;21030;53.912;15.214;2023-02-01T00:28:31;22.90;29.20
34815;DHT22;21030;53.912;15.214;2023-02-01T00:31:03;23.20;28.60
34815;DHT22;21030;53.912;15.214;2023-02-01T00:33:32;22.40;28.90
34815;DHT22;21030;53.912;15.214;2023-02-01T00:36:05;22.70;29.20
34815;DHT22;21030;53.912;15.214;2023-02-01T00:38:34;22.30;29.50
34815;DHT22;21030;53.912;15.214;2023-02-01T00:41:11;21.50;30.00
34815;DHT22;21030;53.912;15.214;2023-02-01T00:43:39;21.70;30.30
34815;DHT22;21030;53.912;15.214;2023-02-01T00:46:07;21.50;30.70
34815;DHT22;21030;53.912;15.214;2023-02-01T00:48:34;21.00;30.70
34815;DHT22;21030;53.912;15.214;2023-02-01T00:51:06;20.30;31.80
34815;DHT22;21030;53.912;15.214;2023-02-01T00:53:34;21.60;31.60
34815;DHT22;21030;53.912;15.214;2023-02-01T00:56:01;22.10;30.20
34815;DHT22;21030;53.912;15.214;2023-02-01T00:58:29;21.50;30.20
34815;DHT22;21030;53.912;15.214;2023-02-01T01:03:37;20.50;31.70
34815;DHT22;21030;53.912;15.214;2023-02-01T01:06:10;20.70;32.00
34815;DHT22;21030;53.912;15.214;2023-02-01T01:08:39;21.70;30.40
34815;DHT22;21030;53.912;15.214;2023-02-01T01:11:12;21.40;30.30
34815;DHT22;21030;53.912;15.214;2023-02-01T01:13:40;22.00;29.70
34815;DHT22;21030;53.912;15.214;2023-02-01T01:16:09;21.10;30.50
34815;DHT22;21030;53.912;15.214;2023-02-01T01:18:37;21.00;30.60
34815;DHT22;21030;53.912;15.214;2023-02-01T01:21:05;20.80;31.60
34815;DHT22;21030;53.912;15.214;2023-02-01T01:23:34;21.30;30.80
34815;DHT22;21030;53.912;15.214;2023-02-01T01:26:17;20.70;31.50
34815;DHT22;21030;53.912;15.214;2023-02-01T01:28:46;20.90;31.50
34815;DHT22;21030;53.912;15.214;2023-02-01T01:31:15;20.60;31.80
34815;DHT22;21030;53.912;15.214;2023-02-01T01:33:42;20.70;31.90
34815;DHT22;21030;53.912;15.214;2023-02-01T01:36:11;20.70;32.10
34815;DHT22;21030;53.912;15.214;2023-02-01T01:38:39;20.90;32.00
34815;DHT22;21030;53.912;15.214;2023-02-01T01:41:08;21.10;31.60
34815;DHT22;21030;53.912;15.214;2023-02-01T01:46:31;21.50;31.40
34815;DHT22;21030;53.912;15.214;2023-02-01T01:51:40;20.60;32.40
34815;DHT22;21030;53.912;15.214;2023-02-01T01:54:16;20.90;31.90
34815;DHT22;21030;53.912;15.214;2023-02-01T01:56:48;20.40;32.60
34815;DHT22;21030;53.912;15.214;2023-02-01T01:59:19;20.10;33.20
34815;DHT22;21030;53.912;15.214;2023-02-01T02:01:47;19.30;34.40
34815;DHT22;21030;53.912;15.214;2023-02-01T02:04:14;19.80;34.50
34815;DHT22;21030;53.912;15.214;2023-02-01T02:07:00;19.50;34.50
34815;DHT22;21030;53.912;15.214;2023-02-01T02:09:28;20.70;33.50
34815;DHT22;21030;53.912;15.214;2023-02-01T02:11:56;20.30;33.10
34815;DHT22;21030;53.912;15.214;2023-02-01T02:14:23;20.80;32.70
34815;DHT22;21030;53.912;15.214;2023-02-01T02:20:11;20.90;32.30
34815;DHT22;21030;53.912;15.214;2023-02-01T02:28:24;19.60;34.40
34815;DHT22;21030;53.912;15.214;2023-02-01T02:31:30;19.80;34.40
34815;DHT22;21030;53.912;15.214;2023-02-01T02:34:32;20.60;33.40
34815;DHT22;21030;53.912;15.214;2023-02-01T02:37:05;20.50;33.70
34815;DHT22;21030;53.912;15.214;2023-02-01T02:45:21;19.50;34.20
34815;DHT22;21030;53.912;15.214;2023-02-01T02:48:17;19.70;34.40
34815;DHT22;21030;53.912;15.214;2023-02-01T02:50:50;20.30;34.60
34815;DHT22;21030;53.912;15.214;2023-02-01T02:56:38;21.40;31.80
34815;DHT22;21030;53.912;15.214;2023-02-01T02:59:26;21.80;30.90
34815;DHT22;21030;53.912;15.214;2023-02-01T03:02:14;22.90;29.80
34815;DHT22;21030;53.912;15.214;2023-02-01T03:05:00;23.10;29.10
34815;DHT22;21030;53.912;15.214;2023-02-01T03:07:57;22.20;29.60
34815;DHT22;21030;53.912;15.214;2023-02-01T03:11:05;23.10;29.90
34815;DHT22;21030;53.912;15.214;2023-02-01T03:13:54;23.90;28.40
34815;DHT22;21030;53.912;15.214;2023-02-01T03:16:51;22.30;29.00
34815;DHT22;21030;53.912;15.214;2023-02-01T03:19:34;22.90;29.40
34815;DHT22;21030;53.912;15.214;2023-02-01T03:22:08;22.50;29.30
34815;DHT22;21030;53.912;15.214;2023-02-01T03:24:41;22.80;29.50
34815;DHT22;21030;53.912;15.214;2023-02-01T03:27:34;22.80;29.70
34815;DHT22;21030;53.912;15.214;2023-02-01T03:30:20;22.00;29.80
34815;DHT22;21030;53.912;15.214;2023-02-01T03:32:51;23.00;29.70
34815;DHT22;21030;53.912;15.214;2023-02-01T03:36:30;23.30;28.60
34815;DHT22;21030;53.912;15.214;2023-02-01T03:39:00;23.40;29.00
34815;DHT22;21030;53.912;15.214;2023-02-01T03:41:46;23.30;28.40
34815;DHT22;21030;53.912;15.214;2023-02-01T03:44:19;22.80;28.80
34815;DHT22;21030;53.912;15.214;2023-02-01T03:46:54;22.50;29.70
34815;DHT22;21030;53.912;15.214;2023-02-01T03:49:29;24.10;28.70
34815;DHT22;21030;53.912;15.214;2023-02-01T03:51:59;24.40;27.70
34815;DHT22;21030;53.912;15.214;2023-02-01T03:54:30;23.80;28.00
34815;DHT22;21030;53.912;15.214;2023-02-01T03:57:02;24.30;27.90
34815;DHT22;21030;53.912;15.214;2023-02-01T03:59:30;23.80;27.80
34815;DHT22;21030;53.912;15.214;2023-02-01T04:01:59;23.20;28.60
34815;DHT22;21030;53.912;15.214;2023-02-01T04:04:27;24.70;28.00
34815;DHT22;21030;53.912;15.214;2023-02-01T04:06:54;24.80;27.40
34815;DHT22;21030;53.912;15.214;2023-02-01T04:09:21;25.20;27.00
34815;DHT22;21030;53.912;15.214;2023-02-01T04:11:48;26.30;26.40
34815;DHT22;21030;53.912;15.214;2023-02-01T04:14:15;25.30;26.80
34815;DHT22;21030;53.912;15.214;2023-02-01T04:16:42;24.40;27.30
34815;DHT22;21030;53.912;15.214;2023-02-01T04:19:09;24.30;27.70
34815;DHT22;21030;53.912;15.214;2023-02-01T04:21:36;23.00;28.60
34815;DHT22;21030;53.912;15.214;2023-02-01T04:24:04;22.50;29.20
34815;DHT22;21030;53.912;15.214;2023-02-01T04:26:31;23.40;29.00
34815;DHT22;21030;53.912;15.214;2023-02-01T04:28:58;23.70;27.90
34815;DHT22;21030;53.912;15.214;2023-02-01T04:31:26;23.90;27.80
34815;DHT22;21030;53.912;15.214;2023-02-01T04:33:55;23.70;28.10
34815;DHT22;21030;53.912;15.214;2023-02-01T04:36:24;24.00;27.90
34815;DHT22;21030;53.912;15.214;2023-02-01T04:38:52;24.40;28.00
34815;DHT22;21030;53.912;15.214;2023-02-01T04:41:19;24.50;27.20
34815;DHT22;21030;53.912;15.214;2023-02-01T04:43:47;23.20;28.20
34815;DHT22;21030;53.912;15.214;2023-02-01T04:46:15;23.10;28.70
34815;DHT22;21030;53.912;15.214;2023-02-01T04:48:42;23.10;28.90
34815;DHT22;21030;53.912;15.214;2023-02-01T04:51:10;24.20;28.10
34815;DHT22;21030;53.912;15.214;2023-02-01T04:53:37;24.50;27.60
34815;DHT22;21030;53.912;15.214;2023-02-01T04:56:05;24.30;27.30
34815;DHT22;21030;53.912;15.214;2023-02-01T04:58:33;24.00;27.80
34815;DHT22;21030;53.912;15.214;2023-02-01T05:01:03;23.60;28.10
34815;DHT22;21030;53.912;15.214;2023-02-01T05:03:34;22.80;28.70
34815;DHT22;21030;53.912;15.214;2023-02-01T05:06:01;22.90;28.90
34815;DHT22;21030;53.912;15.214;2023-02-01T05:08:31;22.10;29.10
34815;DHT22;21030;53.912;15.214;2023-02-01T05:10:58;21.40;30.50
34815;DHT22;21030;53.912;15.214;2023-02-01T05:13:26;20.80;31.60
34815;DHT22;21030;53.912;15.214;2023-02-01T05:16:12;22.00;30.30
34815;DHT22;21030;53.912;15.214;2023-02-01T05:18:39;21.50;30.70
34815;DHT22;21030;53.912;15.214;2023-02-01T05:21:06;21.80;31.00
34815;DHT22;21030;53.912;15.214;2023-02-01T05:23:33;21.30;31.10
34815;DHT22;21030;53.912;15.214;2023-02-01T05:26:20;21.80;31.30
34815;DHT22;21030;53.912;15.214;2023-02-01T05:28:47;21.60;30.80
34815;DHT22;21030;53.912;15.214;2023-02-01T05:31:14;21.70;30.90
34815;DHT22;21030;53.912;15.214;2023-02-01T05:33:42;21.50;30.90
34815;DHT22;21030;53.912;15.214;2023-02-01T05:36:09;22.70;30.20
34815;DHT22;21030;53.912;15.214;2023-02-01T05:38:36;22.60;29.60
34815;DHT22;21030;53.912;15.214;2023-02-01T05:41:03;23.30;28.80
34815;DHT22;21030;53.912;15.214;2023-02-01T05:43:31;21.80;29.80
34815;DHT22;21030;53.912;15.214;2023-02-01T05:45:58;21.80;30.30
34815;DHT22;21030;53.912;15.214;2023-02-01T05:48:25;22.00;30.70
34815;DHT22;21030;53.912;15.214;2023-02-01T05:50:53;21.70;30.40
34815;DHT22;21030;53.912;15.214;2023-02-01T05:53:20;22.30;30.40
34815;DHT22;21030;53.912;15.214;2023-02-01T05:55:47;21.70;30.50
34815;DHT22;21030;53.912;15.214;2023-02-01T05:58:14;22.30;29.90
34815;DHT22;21030;53.912;15.214;2023-02-01T06:00:41;22.20;30.10
34815;DHT22;21030;53.912;15.214;2023-02-01T06:03:08;22.60;29.80
34815;DHT22;21030;53.912;15.214;2023-02-01T06:05:36;22.40;29.70
34815;DHT22;21030;53.912;15.214;2023-02-01T06:08:03;22.70;29.90
34815;DHT22;21030;53.912;15.214;2023-02-01T06:10:31;22.40;29.60
34815;DHT22;21030;53.912;15.214;2023-02-01T06:12:58;22.70;30.00
34815;DHT22;21030;53.912;15.214;2023-02-01T06:15:25;23.80;29.00
34815;DHT22;21030;53.912;15.214;2023-02-01T06:17:52;24.30;27.90
34815;DHT22;21030;53.912;15.214;2023-02-01T06:20:19;25.00;27.40
34815;DHT22;21030;53.912;15.214;2023-02-01T06:22:47;25.10;26.70
34815;DHT22;21030;53.912;15.214;2023-02-01T06:25:14;24.20;27.40
34815;DHT22;21030;53.912;15.214;2023-02-01T06:27:41;24.90;27.40
34815;DHT22;21030;53.912;15.214;2023-02-01T06:30:08;24.50;27.40
34815;DHT22;21030;53.912;15.214;2023-02-01T06:32:36;23.80;27.50
34815;DHT22;21030;53.912;15.214;2023-02-01T06:35:03;24.10;27.90
34815;DHT22;21030;53.912;15.214;2023-02-01T06:37:30;23.60;28.10
34815;DHT22;21030;53.912;15.214;2023-02-01T06:39:57;22.70;29.10
34815;DHT22;21030;53.912;15.214;2023-02-01T06:42:25;21.90;30.00
34815;DHT22;21030;53.912;15.214;2023-02-01T06:44:52;22.80;30.40
34815;DHT22;21030;53.912;15.214;2023-02-01T06:47:19;24.50;28.50
34815;DHT22;21030;53.912;15.214;2023-02-01T06:49:46;23.90;27.90
34815;DHT22;21030;53.912;15.214;2023-02-01T06:52:13;24.30;28.00
34815;DHT22;21030;53.912;15.214;2023-02-01T06:54:40;23.80;28.00
34815;DHT22;21030;53.912;15.214;2023-02-01T06:57:07;24.50;28.10
34815;DHT22;21030;53.912;15.214;2023-02-01T06:59:35;22.90;28.40
34815;DHT22;21030;53.912;15.214;2023-02-01T07:02:02;22.30;29.90
34815;DHT22;21030;53.912;15.214;2023-02-01T07:04:29;22.10;30.30
34815;DHT22;21030;53.912;15.214;2023-02-01T07:06:57;22.00;30.30
34815;DHT22;21030;53.912;15.214;2023-02-01T07:09:24;22.30;30.00
34815;DHT22;21030;53.912;15.214;2023-02-01T07:11:51;22.10;30.10
34815;DHT22;21030;53.912;15.214;2023-02-01T07:14:18;22.70;30.10
34815;DHT22;21030;53.912;15.214;2023-02-01T07:16:45;22.90;29.20
34815;DHT22;21030;53.912;15.214;2023-02-01T07:19:12;22.90;29.50
34815;DHT22;21030;53.912;15.214;2023-02-01T07:21:39;22.50;29.40
34815;DHT22;21030;53.912;15.214;2023-02-01T07:24:07;21.50;30.80
34815;DHT22;21030;53.912;15.214;2023-02-01T07:26:34;21.30;31.70
34815;DHT22;21030;53.912;15.214;2023-02-01T07:29:01;21.60;31.90
34815;DHT22;21030;53.912;15.214;2023-02-01T07:31:28;21.00;32.00
34815;DHT22;21030;53.912;15.214;2023-02-01T07:33:55;22.30;31.20
34815;DHT22;21030;53.912;15.214;2023-02-01T07:36:24;22.40;30.20
34815;DHT22;21030;53.912;15.214;2023-02-01T07:38:51;21.70;30.60
34815;DHT22;21030;53.912;15.214;2023-02-01T07:41:22;22.30;31.10
34815;DHT22;21030;53.912;15.214;2023-02-01T07:43:52;22.00;31.30
34815;DHT22;21030;53.912;15.214;2023-02-01T07:46:19;21.90;31.10
34815;DHT22;21030;53.912;15.214;2023-02-01T07:48:46;21.60;31.70
34815;DHT22;21030;53.912;15.214;2023-02-01T07:51:15;23.00;30.30
34815;DHT22;21030;53.912;15.214;2023-02-01T07:53:45;23.20;29.80
34815;DHT22;21030;53.912;15.214;2023-02-01T07:56:19;23.20;29.80
34815;DHT22;21030;53.912;15.214;2023-02-01T07:58:51;21.80;30.80
34815;DHT22;21030;53.912;15.214;2023-02-01T08:01:21;21.40;32.00
34815;DHT22;21030;53.912;15.214;2023-02-01T08:03:53;22.10;31.50
34815;DHT22;21030;53.912;15.214;2023-02-01T08:06:22;23.20;30.40
34815;DHT22;21030;53.912;15.214;2023-02-01T08:08:50;23.00;30.00
34815;DHT22;21030;53.912;15.214;2023-02-01T08:11:19;22.80;30.00
34815;DHT22;21030;53.912;15.214;2023-02-01T08:13:47;22.80;30.10
34815;DHT22;21030;53.912;15.214;2023-02-01T08:16:15;22.30;30.40
34815;DHT22;21030;53.912;15.214;2023-02-01T08:18:43;22.10;31.20
34815;DHT22;21030;53.912;15.214;2023-02-01T08:21:12;22.40;30.90
34815;DHT22;21030;53.912;15.214;2023-02-01T08:23:41;23.30;30.30
34815;DHT22;21030;53.912;15.214;2023-02-01T08:26:16;25.10;28.70
34815;DHT22;21030;53.912;15.214;2023-02-01T08:28:47;26.30;27.50
34815;DHT22;21030;53.912;15.214;2023-02-01T08:31:15;25.90;26.30
34815;DHT22;21030;53.912;15.214;2023-02-01T08:33:44;25.00;27.50
34815;DHT22;21030;53.912;15.214;2023-02-01T08:36:14;24.10;28.70
34815;DHT22;21030;53.912;15.214;2023-02-01T08:38:41;23.30;29.70
34815;DHT22;21030;53.912;15.214;2023-02-01T08:41:11;23.30;29.40
34815;DHT22;21030;53.912;15.214;2023-02-01T08:43:39;22.90;30.00
34815;DHT22;21030;53.912;15.214;2023-02-01T08:46:07;23.40;29.80
34815;DHT22;21030;53.912;15.214;2023-02-01T08:48:35;23.60;29.20
34815;DHT22;21030;53.912;15.214;2023-02-01T08:51:04;23.50;29.60
34815;DHT22;21030;53.912;15.214;2023-02-01T08:53:34;22.90;29.90
34815;DHT22;21030;53.912;15.214;2023-02-01T08:56:01;22.40;30.60
34815;DHT22;21030;53.912;15.214;2023-02-01T08:58:29;23.10;30.60
34815;DHT22;21030;53.912;15.214;2023-02-01T09:00:56;21.70;30.90
34815;DHT22;21030;53.912;15.214;2023-02-01T09:03:23;21.90;32.10
34815;DHT22;21030;53.912;15.214;2023-02-01T09:05:51;22.00;31.70
34815;DHT22;21030;53.912;15.214;2023-02-01T09:08:20;21.20;32.70
34815;DHT22;21030;53.912;15.214;2023-02-01T09:10:47;21.50;32.80
34815;DHT22;21030;53.912;15.214;2023-02-01T09:13:14;21.10;32.80
34815;DHT22;21030;53.912;15.214;2023-02-01T09:15:42;21.70;32.40
34815;DHT22;21030;53.912;15.214;2023-02-01T09:18:09;21.30;32.30
34815;DHT22;21030;53.912;15.214;2023-02-01T09:20:37;21.10;32.90
34815;DHT22;21030;53.912;15.214;2023-02-01T09:23:04;20.80;33.60
34815;DHT22;21030;53.912;15.214;2023-02-01T09:25:33;21.40;33.10
34815;DHT22;21030;53.912;15.214;2023-02-01T09:28:00;21.70;33.10
34815;DHT22;21030;53.912;15.214;2023-02-01T09:30:28;21.20;33.20
34815;DHT22;21030;53.912;15.214;2023-02-01T09:32:57;21.80;33.20
34815;DHT22;21030;53.912;15.214;2023-02-01T09:35:24;21.50;32.90
34815;DHT22;21030;53.912;15.214;2023-02-01T09:37:54;21.50;33.10
34815;DHT22;21030;53.912;15.214;2023-02-01T09:40:21;22.00;32.60
34815;DHT22;21030;53.912;15.214;2023-02-01T09:43:00;21.90;32.80
34815;DHT22;21030;53.912;15.214;2023-02-01T09:45:59;22.30;32.20
34815;DHT22;21030;53.912;15.214;2023-02-01T09:48:37;21.80;32.80
34815;DHT22;21030;53.912;15.214;2023-02-01T09:51:16;21.30;33.90
34815;DHT22;21030;53.912;15.214;2023-02-01T09:54:40;21.30;33.60
34815;DHT22;21030;53.912;15.214;2023-02-01T09:56:40;21.60;33.50
34815;DHT22;21030;53.912;15.214;2023-02-01T10:01:44;21.30;33.60
34815;DHT22;21030;53.912;15.214;2023-02-01T10:04:13;20.90;33.50
34815;DHT22;21030;53.912;15.214;2023-02-01T10:27:18;22.50;31.80
34815;DHT22;21030;53.912;15.214;2023-02-01T10:29:44;23.40;31.00
34815;DHT22;21030;53.912;15.214;2023-02-01T10:32:22;23.30;30.10
34815;DHT22;21030;53.912;15.214;2023-02-01T10:34:59;22.90;30.40
34815;DHT22;21030;53.912;15.214;2023-02-01T10:37:31;22.30;31.60
34815;DHT22;21030;53.912;15.214;2023-02-01T10:42:37;23.10;30.80
34815;DHT22;21030;53.912;15.214;2023-02-01T10:45:06;23.20;30.50
34815;DHT22;21030;53.912;15.214;2023-02-01T10:47:33;23.10;30.00
34815;DHT22;21030;53.912;15.214;2023-02-01T10:53:08;22.90;30.30
34815;DHT22;21030;53.912;15.214;2023-02-01T10:55:53;22.60;31.20
34815;DHT22;21030;53.912;15.214;2023-02-01T10:58:31;23.10;31.10
34815;DHT22;21030;53.912;15.214;2023-02-01T11:01:02;24.40;29.40
34815;DHT22;21030;53.912;15.214;2023-02-01T11:06:33;24.00;29.30
34815;DHT22;21030;53.912;15.214;2023-02-01T11:17:48;22.50;30.50
34815;DHT22;21030;53.912;15.214;2023-02-01T11:19:59;22.80;30.60
34815;DHT22;21030;53.912;15.214;2023-02-01T11:22:27;23.50;30.10
34815;DHT22;21030;53.912;15.214;2023-02-01T11:24:56;23.50;29.90
34815;DHT22;21030;53.912;15.214;2023-02-01T11:27:24;23.60;29.40
34815;DHT22;21030;53.912;15.214;2023-02-01T11:29:59;23.10;30.00
34815;DHT22;21030;53.912;15.214;2023-02-01T11:32:27;23.30;30.10
34815;DHT22;21030;53.912;15.214;2023-02-01T11:34:59;22.60;30.40
34815;DHT22;21030;53.912;15.214;2023-02-01T11:37:31;23.80;30.30
34815;DHT22;21030;53.912;15.214;2023-02-01T11:40:08;23.80;29.30
34815;DHT22;21030;53.912;15.214;2023-02-01T11:43:14;23.80;29.50
34815;DHT22;21030;53.912;15.214;2023-02-01T11:46:03;24.30;28.90
34815;DHT22;21030;53.912;15.214;2023-02-01T11:48:40;23.90;29.40
34815;DHT22;21030;53.912;15.214;2023-02-01T11:51:13;24.10;29.30
34815;DHT22;21030;53.912;15.214;2023-02-01T11:56:36;23.00;29.70
34815;DHT22;21030;53.912;15.214;2023-02-01T12:08:01;22.50;31.20
34815;DHT22;21030;53.912;15.214;2023-02-01T12:19:41;23.40;29.30
34815;DHT22;21030;53.912;15.214;2023-02-01T12:22:42;23.50;29.70
34815;DHT22;21030;53.912;15.214;2023-02-01T12:25:46;25.20;28.40
34815;DHT22;21030;53.912;15.214;2023-02-01T12:37:04;26.70;27.00
34815;DHT22;21030;53.912;15.214;2023-02-01T12:42:31;25.60;27.10
34815;DHT22;21030;53.912;15.214;2023-02-01T12:45:15;25.10;27.10
34815;DHT22;21030;53.912;15.214;2023-02-01T12:47:53;25.20;27.80
34815;DHT22;21030;53.912;15.214;2023-02-01T12:50:32;26.10;26.50
34815;DHT22;21030;53.912;15.214;2023-02-01T12:53:25;26.00;26.10
34815;DHT22;21030;53.912;15.214;2023-02-01T12:56:01;26.60;26.20
34815;DHT22;21030;53.912;15.214;2023-02-01T12:58:49;26.20;25.80
34815;DHT22;21030;53.912;15.214;2023-02-01T13:02:10;27.10;25.80
34815;DHT22;21030;53.912;15.214;2023-02-01T13:04:25;26.80;25.70
34815;DHT22;21030;53.912;15.214;2023-02-01T13:07:12;27.00;25.80
34815;DHT22;21030;53.912;15.214;2023-02-01T13:10:01;26.70;25.90
34815;DHT22;21030;53.912;15.214;2023-02-01T13:12:43;26.30;26.30
34815;DHT22;21030;53.912;15.214;2023-02-01T13:17:46;26.40;26.50
34815;DHT22;21030;53.912;15.214;2023-02-01T13:20:26;25.30;26.90
34815;DHT22;21030;53.912;15.214;2023-02-01T13:25:40;25.90;26.60
34815;DHT22;21030;53.912;15.214;2023-02-01T13:28:18;25.70;26.40
34815;DHT22;21030;53.912;15.214;2023-02-01T13:36:56;25.90;27.30
34815;DHT22;21030;53.912;15.214;2023-02-01T13:39:48;26.50;26.60
34815;DHT22;21030;53.912;15.214;2023-02-01T13:42:29;25.80;26.60
34815;DHT22;21030;53.912;15.214;2023-02-01T13:45:00;26.60;26.80
34815;DHT22;21030;53.912;15.214;2023-02-01T13:47:35;28.00;26.00
34815;DHT22;21030;53.912;15.214;2023-02-01T13:52:45;27.90;25.30
34815;DHT22;21030;53.912;15.214;2023-02-01T13:57:50;28.70;24.30
34815;DHT22;21030;53.912;15.214;2023-02-01T14:00:29;28.40;24.10
34815;DHT22;21030;53.912;15.214;2023-02-01T14:13:41;25.60;25.80
34815;DHT22;21030;53.912;15.214;2023-02-01T14:16:16;25.90;26.30
34815;DHT22;21030;53.912;15.214;2023-02-01T14:21:48;25.80;26.40
34815;DHT22;21030;53.912;15.214;2023-02-01T14:24:23;27.30;25.70
34815;DHT22;21030;53.912;15.214;2023-02-01T14:26:52;28.70;24.60
34815;DHT22;21030;53.912;15.214;2023-02-01T14:29:35;27.20;24.20
34815;DHT22;21030;53.912;15.214;2023-02-01T14:32:19;25.70;25.70
34815;DHT22;21030;53.912;15.214;2023-02-01T14:50:38;29.00;23.80
34815;DHT22;21030;53.912;15.214;2023-02-01T14:56:29;27.00;24.70
34815;DHT22;21030;53.912;15.214;2023-02-01T14:58:37;27.30;24.90
34815;DHT22;21030;53.912;15.214;2023-02-01T15:06:47;25.60;26.10
34815;DHT22;21030;53.912;15.214;2023-02-01T15:14:46;25.00;26.80
34815;DHT22;21030;53.912;15.214;2023-02-01T15:17:27;24.90;27.20
34815;DHT22;21030;53.912;15.214;2023-02-01T15:19:59;24.90;27.10
34815;DHT22;21030;53.912;15.214;2023-02-01T15:22:28;25.00;27.00
34815;DHT22;21030;53.912;15.214;2023-02-01T15:24:57;24.40;27.50
34815;DHT22;21030;53.912;15.214;2023-02-01T15:27:26;23.20;28.60
34815;DHT22;21030;53.912;15.214;2023-02-01T15:29:54;22.90;29.40
34815;DHT22;21030;53.912;15.214;2023-02-01T15:32:47;22.90;29.50
34815;DHT22;21030;53.912;15.214;2023-02-01T15:35:38;23.00;29.80
34815;DHT22;21030;53.912;15.214;2023-02-01T15:38:44;23.10;29.60
34815;DHT22;21030;53.912;15.214;2023-02-01T15:41:21;23.60;29.20
34815;DHT22;21030;53.912;15.214;2023-02-01T15:46:34;23.80;28.90
34815;DHT22;21030;53.912;15.214;2023-02-01T15:49:03;23.40;29.30
34815;DHT22;21030;53.912;15.214;2023-02-01T15:51:32;23.40;29.40
34815;DHT22;21030;53.912;15.214;2023-02-01T15:54:16;23.60;29.70
34815;DHT22;21030;53.912;15.214;2023-02-01T15:56:54;24.50;28.90
34815;DHT22;21030;53.912;15.214;2023-02-01T15:59:25;24.80;29.10
34815;DHT22;21030;53.912;15.214;2023-02-01T16:01:55;24.30;29.30
34815;DHT22;21030;53.912;15.214;2023-02-01T16:04:25;24.90;28.70
34815;DHT22;21030;53.912;15.214;2023-02-01T16:06:58;25.20;28.40
34815;DHT22;21030;53.912;15.214;2023-02-01T16:09:48;25.40;28.40
34815;DHT22;21030;53.912;15.214;2023-02-01T16:14:55;24.30;29.00
34815;DHT22;21030;53.912;15.214;2023-02-01T16:17:22;24.80;29.20
34815;DHT22;21030;53.912;15.214;2023-02-01T16:19:50;24.60;28.90
34815;DHT22;21030;53.912;15.214;2023-02-01T16:22:17;24.50;29.00
34815;DHT22;21030;53.912;15.214;2023-02-01T16:24:44;23.20;30.20
34815;DHT22;21030;53.912;15.214;2023-02-01T16:27:11;23.70;30.50
34815;DHT22;21030;53.912;15.214;2023-02-01T16:29:38;23.20;30.30
34815;DHT22;21030;53.912;15.214;2023-02-01T16:32:19;23.10;31.10
34815;DHT22;21030;53.912;15.214;2023-02-01T16:34:47;23.20;30.60
34815;DHT22;21030;53.912;15.214;2023-02-01T16:37:19;23.30;31.10
34815;DHT22;21030;53.912;15.214;2023-02-01T16:39:48;23.20;30.70
34815;DHT22;21030;53.912;15.214;2023-02-01T16:42:16;24.30;29.90
34815;DHT22;21030;53.912;15.214;2023-02-01T16:44:43;24.90;28.90
34815;DHT22;21030;53.912;15.214;2023-02-01T16:47:19;25.50;28.40
34815;DHT22;21030;53.912;15.214;2023-02-01T16:49:49;25.80;27.50
34815;DHT22;21030;53.912;15.214;2023-02-01T16:52:21;26.00;27.20
34815;DHT22;21030;53.912;15.214;2023-02-01T16:54:49;26.40;27.40
34815;DHT22;21030;53.912;15.214;2023-02-01T16:57:18;25.60;27.50
34815;DHT22;21030;53.912;15.214;2023-02-01T16:59:46;24.70;28.50
34815;DHT22;21030;53.912;15.214;2023-02-01T17:02:18;25.00;28.60
34815;DHT22;21030;53.912;15.214;2023-02-01T17:04:46;25.40;28.20
34815;DHT22;21030;53.912;15.214;2023-02-01T17:07:16;26.30;27.70
34815;DHT22;21030;53.912;15.214;2023-02-01T17:09:45;26.40;27.00
34815;DHT22;21030;53.912;15.214;2023-02-01T17:12:24;26.10;27.10
34815;DHT22;21030;53.912;15.214;2023-02-01T17:14:52;25.20;27.70
34815;DHT22;21030;53.912;15.214;2023-02-01T17:17:21;24.50;28.20
34815;DHT22;21030;53.912;15.214;2023-02-01T17:20:03;23.60;29.30
34815;DHT22;21030;53.912;15.214;2023-02-01T17:22:31;23.70;30.00
34815;DHT22;21030;53.912;15.214;2023-02-01T17:24:58;23.90;29.60
34815;DHT22;21030;53.912;15.214;2023-02-01T17:27:25;24.10;29.30
34815;DHT22;21030;53.912;15.214;2023-02-01T17:29:53;24.00;29.10
34815;DHT22;21030;53.912;15.214;2023-02-01T17:32:25;23.20;29.80
34815;DHT22;21030;53.912;15.214;2023-02-01T17:34:52;22.90;31.10
34815;DHT22;21030;53.912;15.214;2023-02-01T17:37:24;23.00;30.50
34815;DHT22;21030;53.912;15.214;2023-02-01T17:39:51;22.80;30.90
34815;DHT22;21030;53.912;15.214;2023-02-01T17:42:27;22.00;31.60
34815;DHT22;21030;53.912;15.214;2023-02-01T17:45:01;22.90;31.30
34815;DHT22;21030;53.912;15.214;2023-02-01T17:47:28;22.30;30.90
34815;DHT22;21030;53.912;15.214;2023-02-01T17:49:55;23.10;31.00
34815;DHT22;21030;53.912;15.214;2023-02-01T17:52:24;22.70;30.70
34815;DHT22;21030;53.912;15.214;2023-02-01T17:54:52;23.50;30.10
34815;DHT22;21030;53.912;15.214;2023-02-01T17:57:20;23.20;29.70
34815;DHT22;21030;53.912;15.214;2023-02-01T17:59:47;22.30;30.40
34815;DHT22;21030;53.912;15.214;2023-02-01T18:02:22;23.10;31.20
34815;DHT22;21030;53.912;15.214;2023-02-01T18:04:50;22.70;30.50
34815;DHT22;21030;53.912;15.214;2023-02-01T18:07:18;24.00;29.80
34815;DHT22;21030;53.912;15.214;2023-02-01T18:09:46;23.80;29.20
34815;DHT22;21030;53.912;15.214;2023-02-01T18:12:18;22.90;29.90
34815;DHT22;21030;53.912;15.214;2023-02-01T18:14:46;22.30;31.00
34815;DHT22;21030;53.912;15.214;2023-02-01T18:17:13;22.40;31.50
34815;DHT22;21030;53.912;15.214;2023-02-01T18:19:40;22.20;31.50
34815;DHT22;21030;53.912;15.214;2023-02-01T18:22:20;21.80;31.60
34815;DHT22;21030;53.912;15.214;2023-02-01T18:24:48;22.30;31.20
34815;DHT22;21030;53.912;15.214;2023-02-01T18:27:15;23.40;30.20
34815;DHT22;21030;53.912;15.214;2023-02-01T18:29:42;23.60;29.80